Time;durP1;ratioP1;P1;durP2;ratioP2;P2;SDS_P1;SDS_P2;PMS_P1;PMS_P2;Temp;Humidity;BMP_temperature;BMP_pressure;BME280_temperature;BME280_humidity;BME280_pressure;Samples;Min_cycle;Max_cycle;Signal;HPM_P1;HPM_P2
2022/12/10 00:03:50;;;;;;;44.67;23.42;;;-0.90;99.90;;;;;;7375929;32;20091;-60
2022/12/10 00:07:52;;;;;;;43.80;21.87;;;-1.00;99.90;;;;;;7381595;32;20185;-60
2022/12/10 00:11:54;;;;;;;40.83;21.37;;;-0.90;99.90;;;;;;7375289;32;20103;-60
2022/12/10 00:15:55;;;;;;;42.38;21.37;;;-1.00;99.90;;;;;;7377200;32;20134;-59
2022/12/10 00:19:57;;;;;;;43.00;22.52;;;-1.00;99.90;;;;;;7373630;32;20119;-59
2022/12/10 00:23:59;;;;;;;44.35;23.27;;;-1.10;99.90;;;;;;7376844;32;20103;-60
2022/12/10 00:28:01;;;;;;;45.10;22.80;;;-1.10;99.90;;;;;;7368700;32;20201;-59
2022/12/10 00:32:05;;;;;;;42.03;22.50;;;-1.10;99.90;;;;;;7379783;32;20557;-59
2022/12/10 00:36:10;;;;;;;46.05;22.83;;;-1.20;99.90;;;;;;7374275;32;20133;-60
2022/12/10 00:40:12;;;;;;;43.25;22.70;;;-1.30;99.90;;;;;;7379991;32;20626;-60
2022/12/10 00:44:14;;;;;;;50.17;24.12;;;-1.30;99.90;;;;;;7377038;32;20269;-62
2022/12/10 00:48:16;;;;;;;47.67;22.92;;;-1.30;99.90;;;;;;7384249;32;20425;-60
2022/12/10 00:52:18;;;;;;;42.58;22.17;;;-1.40;99.90;;;;;;7371814;32;20110;-59
2022/12/10 00:56:22;;;;;;;43.38;21.92;;;-1.40;99.90;;;;;;7380693;32;20106;-59
2022/12/10 01:00:24;;;;;;;42.95;23.05;;;-1.50;99.90;;;;;;7378207;32;20218;-60
2022/12/10 01:04:26;;;;;;;46.37;21.70;;;-1.50;99.90;;;;;;7383453;32;20118;-60
2022/12/10 01:08:27;;;;;;;44.47;22.05;;;-1.50;99.90;;;;;;7379279;32;20186;-60
2022/12/10 01:12:29;;;;;;;45.78;23.00;;;-1.50;99.90;;;;;;7370898;32;20448;-60
2022/12/10 01:16:31;;;;;;;47.33;22.23;;;-1.50;99.90;;;;;;7377492;32;20224;-60
2022/12/10 01:20:35;;;;;;;43.53;21.35;;;-1.50;99.90;;;;;;7381732;32;20139;-61
2022/12/10 01:24:37;;;;;;;44.22;21.40;;;-1.50;99.90;;;;;;7375987;32;20867;-61
2022/12/10 01:28:40;;;;;;;44.95;21.73;;;-1.60;99.90;;;;;;7373240;32;20117;-60
2022/12/10 01:32:42;;;;;;;41.55;21.75;;;-1.60;99.90;;;;;;7369815;32;20133;-60
2022/12/10 01:36:48;;;;;;;40.85;21.30;;;-1.70;99.90;;;;;;7373361;32;20130;-60
2022/12/10 01:40:49;;;;;;;42.67;21.92;;;-1.70;99.90;;;;;;7373127;32;20190;-60
2022/12/10 01:45:01;;;;;;;39.75;21.40;;;-1.80;99.90;;;;;;7373080;32;20227;-60
2022/12/10 01:49:08;;;;;;;41.45;22.05;;;-1.80;99.90;;;;;;7376815;32;20125;-60
2022/12/10 01:53:11;;;;;;;38.05;20.27;;;-1.80;99.90;;;;;;7372813;32;20194;-60
2022/12/10 01:57:20;;;;;;;37.03;19.40;;;-1.90;99.90;;;;;;7370408;32;20111;-60
2022/12/10 02:01:44;;;;;;;44.10;20.80;;;-1.90;99.90;;;;;;7370662;32;20201;-60
2022/12/10 02:06:13;;;;;;;36.97;19.75;;;-1.80;99.90;;;;;;7370121;32;20136;-60
2022/12/10 02:10:21;;;;;;;41.03;21.02;;;-1.80;99.90;;;;;;7367330;32;20204;-60
2022/12/10 02:15:00;;;;;;;38.95;20.52;;;-1.80;99.90;;;;;;7376331;32;20149;-60
2022/12/10 02:19:36;;;;;;;38.55;20.50;;;-1.70;99.90;;;;;;7374687;32;20269;-60
2022/12/10 02:23:43;;;;;;;43.03;20.35;;;-1.80;99.90;;;;;;7361064;32;20511;-61
2022/12/10 02:28:10;;;;;;;40.05;21.62;;;-1.80;99.90;;;;;;7374548;32;20133;-60
2022/12/10 02:32:21;;;;;;;37.15;19.58;;;-1.70;99.90;;;;;;7383162;32;20107;-61
2022/12/10 02:36:26;;;;;;;38.47;20.73;;;-1.70;99.90;;;;;;7376369;32;20099;-60
2022/12/10 02:40:32;;;;;;;37.47;19.95;;;-1.80;99.90;;;;;;7381260;32;20189;-60
2022/12/10 02:44:36;;;;;;;38.03;19.97;;;-1.70;99.90;;;;;;7378800;32;20566;-60
2022/12/10 02:48:40;;;;;;;44.35;20.95;;;-1.60;99.90;;;;;;7370512;32;20244;-60
2022/12/10 02:52:41;;;;;;;43.05;22.13;;;-1.50;99.90;;;;;;7369616;32;20197;-60
2022/12/10 02:56:54;;;;;;;38.95;20.90;;;-1.50;99.90;;;;;;7378755;32;20135;-60
2022/12/10 03:01:20;;;;;;;38.55;20.67;;;-1.40;99.90;;;;;;7375171;32;20466;-61
2022/12/10 03:05:31;;;;;;;38.50;20.25;;;-1.30;99.90;;;;;;7373948;32;20219;-61
2022/12/10 03:09:42;;;;;;;43.00;21.23;;;-1.20;99.90;;;;;;7381539;32;20126;-61
2022/12/10 03:13:54;;;;;;;41.05;21.50;;;-1.20;99.90;;;;;;7384558;32;20125;-61
2022/12/10 03:17:58;;;;;;;37.65;20.45;;;-1.00;99.90;;;;;;7380351;32;20478;-61
2022/12/10 03:22:02;;;;;;;43.72;22.20;;;-1.00;99.90;;;;;;7377874;32;20125;-60
2022/12/10 03:26:05;;;;;;;39.15;20.62;;;-0.90;99.90;;;;;;7381007;32;20538;-60
2022/12/10 03:30:08;;;;;;;40.67;22.08;;;-0.90;99.90;;;;;;7380345;32;20512;-61
2022/12/10 03:34:11;;;;;;;40.75;21.08;;;-0.90;99.90;;;;;;7383218;32;20139;-61
2022/12/10 03:38:14;;;;;;;40.30;21.55;;;-0.80;99.90;;;;;;7376242;32;20106;-61
2022/12/10 03:42:15;;;;;;;44.15;22.62;;;-0.90;99.90;;;;;;7381701;32;20542;-60
2022/12/10 03:46:18;;;;;;;44.80;23.27;;;-0.90;99.90;;;;;;7369311;32;20186;-61
2022/12/10 03:50:19;;;;;;;43.63;22.98;;;-0.70;99.90;;;;;;7375647;32;20161;-62
2022/12/10 03:54:21;;;;;;;44.15;23.40;;;-0.70;99.90;;;;;;7378882;32;20115;-60
2022/12/10 03:58:23;;;;;;;51.42;26.02;;;-0.70;99.90;;;;;;7376334;32;20192;-60
2022/12/10 04:02:25;;;;;;;47.28;25.48;;;-0.60;99.90;;;;;;7378553;32;20144;-61
2022/12/10 04:06:26;;;;;;;58.72;28.20;;;-0.50;99.90;;;;;;7368961;32;20128;-61
2022/12/10 04:10:28;;;;;;;55.58;28.05;;;-0.50;99.90;;;;;;7376846;32;20111;-60
2022/12/10 04:18:51;;;;;;;56.50;27.20;;;-0.30;99.90;;;;;;7383125;32;20117;-61
2022/12/10 04:27:27;;;;;;;52.60;26.17;;;-0.30;99.90;;;;;;7379566;32;20697;-60
2022/12/10 04:31:29;;;;;;;55.47;26.87;;;-0.20;99.90;;;;;;7374168;32;20129;-60
2022/12/10 04:35:31;;;;;;;52.42;26.37;;;-0.20;99.90;;;;;;7376586;32;20507;-61
2022/12/10 04:39:33;;;;;;;51.10;24.98;;;-0.20;99.90;;;;;;7374591;32;20232;-61
2022/12/10 04:43:34;;;;;;;46.95;24.00;;;-0.20;99.90;;;;;;7377670;32;20225;-61
2022/12/10 04:47:36;;;;;;;50.05;26.42;;;-0.20;99.90;;;;;;7377449;32;20119;-61
2022/12/10 04:51:39;;;;;;;58.40;28.10;;;-0.20;99.90;;;;;;7380773;32;20103;-61
2022/12/10 04:55:40;;;;;;;55.65;27.77;;;-0.20;99.90;;;;;;7375738;32;20106;-61
2022/12/10 04:59:43;;;;;;;55.17;27.80;;;-0.20;99.90;;;;;;7378436;32;20197;-61
2022/12/10 05:03:44;;;;;;;62.95;28.80;;;-0.10;99.90;;;;;;7378413;32;20558;-60
2022/12/10 05:07:46;;;;;;;63.95;29.70;;;0.00;99.90;;;;;;7374462;32;20125;-61
2022/12/10 05:11:48;;;;;;;56.75;26.65;;;-0.10;99.90;;;;;;7369315;32;20099;-61
2022/12/10 05:15:49;;;;;;;56.35;27.77;;;-0.10;99.90;;;;;;7378087;32;20241;-60
2022/12/10 05:19:51;;;;;;;52.97;26.25;;;-0.20;99.90;;;;;;7381401;32;20515;-60
2022/12/10 05:23:53;;;;;;;50.20;25.23;;;-0.20;99.90;;;;;;7382262;32;20170;-61
2022/12/10 05:27:55;;;;;;;54.15;26.05;;;-0.20;99.90;;;;;;7373655;32;20120;-61
2022/12/10 05:31:56;;;;;;;60.15;27.75;;;-0.20;99.90;;;;;;7377425;32;20129;-61
2022/12/10 05:36:03;;;;;;;66.78;30.77;;;-0.10;99.90;;;;;;7377745;32;20115;-61
2022/12/10 05:40:05;;;;;;;68.75;30.12;;;-0.10;99.90;;;;;;7367719;32;20107;-60
2022/12/10 05:44:09;;;;;;;73.85;31.33;;;0.00;99.90;;;;;;7381779;32;20495;-61
2022/12/10 05:48:12;;;;;;;76.60;32.55;;;0.00;99.90;;;;;;7376080;32;20099;-60
2022/12/10 05:52:14;;;;;;;75.45;31.55;;;0.10;99.90;;;;;;7374657;32;20122;-60
2022/12/10 05:56:21;;;;;;;78.47;32.15;;;0.10;99.90;;;;;;7373500;32;20125;-60
2022/12/10 06:00:23;;;;;;;78.00;31.35;;;0.20;99.90;;;;;;7382232;32;20337;-60
2022/12/10 06:04:25;;;;;;;68.55;29.15;;;0.20;99.90;;;;;;7373353;32;20107;-61
2022/12/10 06:08:26;;;;;;;72.25;31.95;;;0.20;99.90;;;;;;7372113;32;20186;-60
2022/12/10 06:12:28;;;;;;;66.95;30.65;;;0.20;99.90;;;;;;7373485;32;20194;-60
2022/12/10 06:16:30;;;;;;;69.03;30.90;;;0.20;99.90;;;;;;7374503;32;20099;-61
2022/12/10 06:20:32;;;;;;;66.25;30.52;;;0.20;99.90;;;;;;7371233;32;20188;-61
2022/12/10 06:24:33;;;;;;;67.47;30.20;;;0.20;99.90;;;;;;7380478;32;20099;-61
2022/12/10 06:28:37;;;;;;;64.93;29.27;;;0.20;99.90;;;;;;7377900;32;20119;-61
2022/12/10 06:32:39;;;;;;;68.18;30.23;;;0.10;99.90;;;;;;7373538;32;20537;-60
2022/12/10 06:36:40;;;;;;;65.97;29.87;;;0.10;99.90;;;;;;7374556;32;20133;-61
2022/12/10 06:40:42;;;;;;;69.47;29.98;;;0.20;99.90;;;;;;7376080;32;20194;-60
2022/12/10 06:44:44;;;;;;;67.30;29.23;;;0.10;99.90;;;;;;7378119;32;20119;-61
2022/12/10 06:48:46;;;;;;;65.37;30.77;;;0.20;99.90;;;;;;7375802;32;20135;-60
2022/12/10 06:52:50;;;;;;;66.90;28.85;;;0.10;99.90;;;;;;7373670;32;20107;-60
2022/12/10 06:56:55;;;;;;;71.28;30.45;;;0.20;99.90;;;;;;7370158;32;20164;-60
2022/12/10 07:01:09;;;;;;;70.70;31.20;;;0.00;99.90;;;;;;7372252;32;20499;-60
2022/12/10 07:05:11;;;;;;;70.57;31.50;;;0.10;99.90;;;;;;7370832;32;20194;-60
2022/12/10 07:09:13;;;;;;;61.75;30.02;;;0.10;99.90;;;;;;7379688;32;20130;-61
2022/12/10 07:13:15;;;;;;;76.55;33.30;;;0.10;99.90;;;;;;7380411;32;20157;-60
2022/12/10 07:17:16;;;;;;;78.62;33.45;;;0.10;99.90;;;;;;7372697;32;20224;-60
2022/12/10 07:21:24;;;;;;;72.95;33.17;;;0.20;99.90;;;;;;7365320;32;20295;-62
2022/12/10 07:25:26;;;;;;;75.07;33.90;;;0.20;99.90;;;;;;7364803;32;20600;-60
2022/12/10 07:29:27;;;;;;;76.00;34.90;;;0.20;99.90;;;;;;7364260;32;20768;-60
2022/12/10 07:33:29;;;;;;;79.57;35.00;;;0.30;99.90;;;;;;7364368;32;20177;-63
2022/12/10 07:37:31;;;;;;;86.75;37.10;;;0.20;99.90;;;;;;7372431;32;20137;-62
2022/12/10 07:41:32;;;;;;;84.07;38.03;;;0.30;99.90;;;;;;7374506;32;20863;-62
2022/12/10 07:45:34;;;;;;;82.00;38.40;;;0.30;99.90;;;;;;7369095;32;20205;-61
2022/12/10 07:49:36;;;;;;;77.75;36.67;;;0.30;99.90;;;;;;7370811;32;20220;-59
2022/12/10 07:53:38;;;;;;;73.07;35.80;;;0.30;99.90;;;;;;7361639;32;20562;-59
2022/12/10 07:57:40;;;;;;;75.35;35.30;;;0.30;99.90;;;;;;7359336;32;20100;-61
2022/12/10 08:01:42;;;;;;;75.18;34.13;;;0.30;99.90;;;;;;7371383;32;20181;-61
2022/12/10 08:05:43;;;;;;;76.62;34.20;;;0.30;99.90;;;;;;7381971;32;20202;-60
2022/12/10 08:09:45;;;;;;;81.18;35.05;;;0.30;99.90;;;;;;7378739;32;20487;-60
2022/12/10 08:13:47;;;;;;;74.78;34.78;;;0.20;99.90;;;;;;7377456;32;20125;-61
2022/12/10 08:17:56;;;;;;;72.90;33.85;;;0.20;99.90;;;;;;7378121;32;20170;-61
2022/12/10 08:21:58;;;;;;;78.53;34.28;;;0.20;99.90;;;;;;7373894;32;20129;-60
2022/12/10 08:26:06;;;;;;;75.70;34.47;;;0.20;99.90;;;;;;7380786;32;20112;-61
2022/12/10 08:30:09;;;;;;;83.70;37.58;;;0.20;99.90;;;;;;7360620;32;20234;-61
2022/12/10 08:34:14;;;;;;;83.18;35.55;;;0.20;99.90;;;;;;7367647;32;20669;-60
2022/12/10 08:38:15;;;;;;;80.32;36.42;;;0.20;99.90;;;;;;7367800;32;20278;-59
2022/12/10 08:42:17;;;;;;;81.32;37.20;;;0.30;99.90;;;;;;7355772;32;20194;-60
2022/12/10 08:46:19;;;;;;;80.40;36.55;;;0.30;99.90;;;;;;7362016;32;20253;-61
2022/12/10 08:50:21;;;;;;;75.82;34.20;;;0.30;99.90;;;;;;7361366;32;20240;-60
2022/12/10 08:54:22;;;;;;;83.50;36.58;;;0.30;99.90;;;;;;7345193;32;20276;-61
2022/12/10 08:58:24;;;;;;;78.95;34.92;;;0.20;99.90;;;;;;7364840;32;20575;-62
2022/12/10 09:02:26;;;;;;;80.60;35.38;;;0.30;99.90;;;;;;7368773;32;20474;-60
2022/12/10 09:06:28;;;;;;;81.95;33.92;;;0.20;99.90;;;;;;7376721;32;20507;-60
2022/12/10 09:10:30;;;;;;;73.70;33.13;;;0.30;99.90;;;;;;7369986;32;20474;-60
2022/12/10 09:14:32;;;;;;;71.82;32.83;;;0.20;99.90;;;;;;7373437;32;20471;-61
2022/12/10 09:18:34;;;;;;;72.37;31.95;;;0.10;99.90;;;;;;7371817;32;20695;-60
2022/12/10 09:22:38;;;;;;;68.87;30.80;;;0.10;99.90;;;;;;7380409;32;20482;-61
2022/12/10 09:26:40;;;;;;;68.50;32.08;;;0.10;99.90;;;;;;7375445;32;20099;-60
2022/12/10 09:30:42;;;;;;;72.60;32.67;;;0.10;99.90;;;;;;7365716;32;20145;-60
2022/12/10 09:34:44;;;;;;;66.25;32.63;;;0.10;99.90;;;;;;7384266;32;20212;-60
2022/12/10 09:38:46;;;;;;;66.03;29.85;;;0.20;99.90;;;;;;7374759;32;20134;-60
2022/12/10 09:43:19;;;;;;;69.90;32.47;;;0.20;99.90;;;;;;7364755;32;20114;-60
2022/12/10 09:47:27;;;;;;;64.15;31.02;;;0.20;99.90;;;;;;7361581;32;20229;-60
2022/12/10 09:51:32;;;;;;;60.55;28.08;;;0.30;99.90;;;;;;7372824;32;20107;-59
2022/12/10 09:55:38;;;;;;;62.50;26.62;;;0.30;99.90;;;;;;7379564;32;20102;-60
2022/12/10 09:59:46;;;;;;;68.55;30.58;;;0.20;99.90;;;;;;7366198;32;20098;-59
2022/12/10 10:03:47;;;;;;;67.35;31.10;;;0.10;99.90;;;;;;7374373;32;20253;-60
2022/12/10 10:07:56;;;;;;;68.05;29.77;;;0.10;99.90;;;;;;7369715;32;20176;-61
2022/12/10 10:11:58;;;;;;;66.75;31.65;;;0.10;99.90;;;;;;7371770;32;20130;-61
2022/12/10 10:16:31;;;;;;;62.65;29.27;;;0.20;99.90;;;;;;7368247;32;20812;-62
2022/12/10 10:20:34;;;;;;;64.55;28.67;;;0.20;99.90;;;;;;7372792;32;20123;-62
2022/12/10 10:24:39;;;;;;;55.78;25.50;;;0.20;99.90;;;;;;7376059;32;20113;-62
2022/12/10 10:28:42;;;;;;;60.12;26.70;;;0.20;99.90;;;;;;7375807;32;20128;-61
2022/12/10 10:32:49;;;;;;;66.60;29.52;;;0.10;99.90;;;;;;7375210;32;20287;-62
2022/12/10 10:36:57;;;;;;;60.05;27.37;;;0.00;99.90;;;;;;7377560;32;20530;-61
2022/12/10 10:41:01;;;;;;;66.97;29.10;;;0.00;99.90;;;;;;7375173;32;20529;-60
2022/12/10 10:45:36;;;;;;;60.00;25.60;;;0.10;99.90;;;;;;7381021;32;20174;-61
2022/12/10 10:49:44;;;;;;;61.03;28.12;;;0.10;99.90;;;;;;7376387;32;20127;-61
2022/12/10 10:53:51;;;;;;;60.90;26.37;;;0.00;99.90;;;;;;7373679;32;20244;-61
2022/12/10 10:57:53;;;;;;;60.17;27.08;;;0.00;99.90;;;;;;7382693;32;20122;-62
2022/12/10 11:02:17;;;;;;;60.03;26.50;;;0.10;99.90;;;;;;7380181;32;20107;-62
2022/12/10 11:06:22;;;;;;;63.13;27.15;;;0.20;99.90;;;;;;7371472;32;20186;-61
2022/12/10 11:10:25;;;;;;;57.50;26.37;;;0.30;99.90;;;;;;7378847;32;20690;-61
2022/12/10 11:14:31;;;;;;;51.92;24.92;;;0.40;99.90;;;;;;7379085;32;20140;-61
2022/12/10 11:18:52;;;;;;;58.85;26.37;;;0.50;99.90;;;;;;7373149;32;20531;-61
2022/12/10 11:22:58;;;;;;;53.22;24.92;;;0.40;99.90;;;;;;7377633;32;20212;-62
2022/12/10 11:27:14;;;;;;;53.77;24.70;;;0.40;99.90;;;;;;7379940;32;20137;-62
2022/12/10 11:31:35;;;;;;;48.80;23.85;;;0.60;99.90;;;;;;7382947;32;20687;-61
2022/12/10 11:35:50;;;;;;;47.22;23.05;;;0.60;99.90;;;;;;7378968;32;20198;-61
2022/12/10 11:40:04;;;;;;;46.08;23.08;;;0.60;99.90;;;;;;7376480;32;20099;-61
2022/12/10 11:44:16;;;;;;;43.58;23.00;;;0.60;99.90;;;;;;7370262;32;20115;-61
2022/12/10 11:48:39;;;;;;;46.60;22.85;;;0.60;99.90;;;;;;7378364;32;20136;-61
2022/12/10 11:52:55;;;;;;;42.00;21.25;;;0.70;99.90;;;;;;7381206;32;20125;-61
2022/12/10 11:57:13;;;;;;;42.35;22.55;;;0.60;99.90;;;;;;7381333;32;20182;-61
2022/12/10 12:01:18;;;;;;;44.08;20.12;;;0.70;99.90;;;;;;7375263;32;20107;-62
2022/12/10 12:05:51;;;;;;;45.63;22.73;;;0.80;99.90;;;;;;7368703;32;20832;-60
2022/12/10 12:10:33;;;;;;;49.75;23.20;;;0.90;99.90;;;;;;7370785;32;20243;-61
2022/12/10 12:15:03;;;;;;;47.97;21.87;;;1.00;99.90;;;;;;7372304;32;20458;-61
2022/12/10 12:19:13;;;;;;;47.33;23.40;;;1.00;99.90;;;;;;7378136;32;20186;-62
2022/12/10 12:23:54;;;;;;;43.20;22.65;;;1.10;99.90;;;;;;7367491;32;20220;-61
2022/12/10 12:28:15;;;;;;;43.65;21.85;;;1.10;99.90;;;;;;7352239;32;20214;-62
2022/12/10 12:32:29;;;;;;;41.65;21.05;;;1.00;99.90;;;;;;7378559;32;20107;-61
2022/12/10 12:36:34;;;;;;;43.25;21.67;;;0.90;99.90;;;;;;7371193;32;20119;-61
2022/12/10 12:41:31;;;;;;;42.08;21.60;;;0.80;99.90;;;;;;7381842;32;20451;-60
2022/12/10 12:45:40;;;;;;;43.15;21.17;;;0.70;99.90;;;;;;7265801;32;20118;-62
2022/12/10 12:49:44;;;;;;;47.65;23.23;;;0.70;99.90;;;;;;7377576;32;20121;-60
2022/12/10 12:53:45;;;;;;;44.25;23.08;;;0.80;99.90;;;;;;7372425;32;20134;-61
2022/12/10 12:58:12;;;;;;;40.58;19.77;;;0.70;99.90;;;;;;7378061;32;20814;-60
2022/12/10 13:02:42;;;;;;;43.67;22.15;;;0.70;99.90;;;;;;7376359;32;20103;-62
2022/12/10 13:07:15;;;;;;;44.92;22.33;;;0.80;99.90;;;;;;7376163;32;20128;-60
2022/12/10 13:11:27;;;;;;;46.92;22.83;;;0.80;99.90;;;;;;7366745;32;22080;-60
2022/12/10 13:15:38;;;;;;;49.10;25.30;;;0.80;99.90;;;;;;7377338;32;20208;-61
2022/12/10 13:19:41;;;;;;;47.22;24.27;;;0.90;99.90;;;;;;7374715;32;20103;-60
2022/12/10 13:23:54;;;;;;;45.60;24.35;;;1.00;99.90;;;;;;7373187;32;20106;-61
2022/12/10 13:28:15;;;;;;;49.47;24.23;;;1.20;99.90;;;;;;7378501;32;20130;-61
2022/12/10 13:32:19;;;;;;;46.17;24.30;;;1.30;99.90;;;;;;7370994;32;20145;-61
2022/12/10 13:36:45;;;;;;;47.60;25.12;;;1.20;99.90;;;;;;7379709;32;20193;-60
2022/12/10 13:45:24;;;;;;;47.80;23.98;;;1.10;99.90;;;;;;7366233;32;21967;-59
2022/12/10 13:49:29;;;;;;;45.42;23.35;;;1.00;99.90;;;;;;7369203;32;20625;-60
2022/12/10 13:54:01;;;;;;;49.90;25.85;;;1.00;99.90;;;;;;7373262;32;20115;-59
2022/12/10 13:58:05;;;;;;;54.97;26.37;;;0.90;99.90;;;;;;7373714;32;20142;-59
2022/12/10 14:02:37;;;;;;;55.42;27.37;;;0.90;99.90;;;;;;7371448;32;20106;-60
2022/12/10 14:06:41;;;;;;;49.65;25.58;;;1.00;99.90;;;;;;7368778;32;20110;-60
2022/12/10 14:10:44;;;;;;;53.65;25.48;;;0.90;99.90;;;;;;7369897;32;20095;-60
2022/12/10 14:14:52;;;;;;;52.97;25.58;;;0.90;99.90;;;;;;7366557;32;20252;-61
2022/12/10 14:19:00;;;;;;;56.55;26.05;;;0.90;99.90;;;;;;7364881;32;20515;-60
2022/12/10 14:27:27;;;;;;;56.67;27.35;;;1.00;99.90;;;;;;7378623;32;20220;-61
2022/12/10 14:31:34;;;;;;;53.72;26.02;;;1.00;99.90;;;;;;7377399;32;20504;-60
2022/12/10 14:35:36;;;;;;;52.58;25.58;;;1.00;99.90;;;;;;7385211;32;20186;-60
2022/12/10 14:39:39;;;;;;;53.45;26.45;;;1.00;99.90;;;;;;7384163;32;20110;-60
2022/12/10 14:43:41;;;;;;;60.42;27.75;;;1.00;99.90;;;;;;7376468;32;20131;-61
2022/12/10 14:47:43;;;;;;;64.47;29.08;;;1.00;99.90;;;;;;7375985;32;20103;-61
2022/12/10 14:51:49;;;;;;;60.95;28.73;;;0.90;99.90;;;;;;7380806;32;20180;-60
2022/12/10 14:55:59;;;;;;;55.97;28.73;;;1.00;99.90;;;;;;7382305;32;20110;-60
2022/12/10 15:00:07;;;;;;;61.40;28.05;;;1.00;99.90;;;;;;7384060;32;20517;-61
2022/12/10 15:04:18;;;;;;;59.90;26.50;;;0.90;99.90;;;;;;7384307;32;20813;-61
2022/12/10 15:08:28;;;;;;;53.10;28.00;;;0.90;99.90;;;;;;7377989;32;20118;-62
2022/12/10 15:12:44;;;;;;;52.28;27.42;;;0.90;99.90;;;;;;7381227;32;20106;-62
2022/12/10 15:16:47;;;;;;;52.50;26.23;;;0.80;99.90;;;;;;7383826;32;20190;-61
2022/12/10 15:21:01;;;;;;;53.20;26.98;;;0.90;99.90;;;;;;7373156;32;20119;-61
2022/12/10 15:25:23;;;;;;;52.45;27.73;;;0.80;99.90;;;;;;7386699;32;20117;-61
2022/12/10 15:29:25;;;;;;;61.17;28.90;;;0.80;99.90;;;;;;7377016;32;20123;-63
2022/12/10 15:33:37;;;;;;;54.92;27.73;;;0.70;99.90;;;;;;7370788;32;20241;-61
2022/12/10 15:37:40;;;;;;;58.45;27.60;;;0.90;99.90;;;;;;7374592;32;20116;-59
2022/12/10 15:41:51;;;;;;;51.50;27.67;;;0.90;99.90;;;;;;7371991;32;20100;-60
2022/12/10 15:45:52;;;;;;;51.28;26.08;;;0.90;99.90;;;;;;7372279;32;20135;-59
2022/12/10 15:49:55;;;;;;;51.85;27.23;;;1.00;99.90;;;;;;7375587;32;20386;-59
2022/12/10 15:53:57;;;;;;;54.50;29.37;;;1.00;99.90;;;;;;7376191;32;20111;-60
2022/12/10 15:57:59;;;;;;;55.30;27.98;;;1.00;99.90;;;;;;7372257;32;20221;-59
2022/12/10 16:02:02;;;;;;;52.62;28.65;;;1.00;99.90;;;;;;7380215;32;20171;-59
2022/12/10 16:06:04;;;;;;;49.63;26.15;;;0.90;99.90;;;;;;7375839;32;20281;-59
2022/12/10 16:10:06;;;;;;;53.70;27.00;;;1.00;99.90;;;;;;7369851;32;20625;-61
2022/12/10 16:14:10;;;;;;;54.25;27.70;;;0.90;99.90;;;;;;7376943;32;20177;-60
2022/12/10 16:18:11;;;;;;;52.15;25.92;;;0.90;99.90;;;;;;7377772;32;20106;-58
2022/12/10 16:22:13;;;;;;;50.55;25.15;;;0.90;99.90;;;;;;7371624;32;20115;-58
2022/12/10 16:26:18;;;;;;;53.17;26.77;;;0.90;99.90;;;;;;7368783;32;20198;-59
2022/12/10 16:30:23;;;;;;;47.55;25.05;;;0.90;99.90;;;;;;7365252;32;20838;-58
2022/12/10 16:34:24;;;;;;;49.83;26.12;;;0.90;99.90;;;;;;7372650;32;20288;-60
2022/12/10 16:38:27;;;;;;;52.08;25.55;;;0.80;99.90;;;;;;7366248;32;20605;-59
2022/12/10 16:42:28;;;;;;;52.25;26.77;;;0.90;99.90;;;;;;7371256;32;20214;-59
2022/12/10 16:46:30;;;;;;;57.20;27.62;;;0.80;99.90;;;;;;7376995;32;20124;-59
2022/12/10 16:50:32;;;;;;;53.80;26.45;;;0.80;99.90;;;;;;7372446;32;20096;-58
2022/12/10 16:54:34;;;;;;;56.25;25.95;;;0.70;99.90;;;;;;7365904;32;20240;-59
2022/12/10 16:58:35;;;;;;;56.60;25.67;;;0.80;99.90;;;;;;7369122;32;20112;-59
2022/12/10 17:02:37;;;;;;;56.40;26.37;;;0.80;99.90;;;;;;7375669;32;20602;-59
2022/12/10 17:06:39;;;;;;;53.95;25.50;;;0.80;99.90;;;;;;7377156;32;20133;-60
2022/12/10 17:15:02;;;;;;;50.17;23.40;;;0.80;99.90;;;;;;7373681;32;20522;-59
2022/12/10 17:19:03;;;;;;;56.80;25.55;;;0.80;99.90;;;;;;7370560;32;20134;-59
2022/12/10 17:23:05;;;;;;;48.30;22.23;;;0.70;99.90;;;;;;7369147;32;20118;-59
2022/12/10 17:27:14;;;;;;;48.87;22.35;;;0.80;99.90;;;;;;7373331;32;20115;-57
2022/12/10 17:31:15;;;;;;;46.53;21.40;;;0.80;99.90;;;;;;7379606;32;20133;-58
2022/12/10 17:35:17;;;;;;;50.67;21.58;;;0.80;99.90;;;;;;7378040;32;20114;-59
2022/12/10 17:39:21;;;;;;;42.62;21.25;;;0.80;99.90;;;;;;7372118;32;20541;-59
2022/12/10 17:43:25;;;;;;;50.33;21.70;;;0.80;99.90;;;;;;7372148;32;20234;-58
2022/12/10 17:47:27;;;;;;;49.13;22.13;;;0.70;99.90;;;;;;7370927;32;20601;-58
2022/12/10 17:51:31;;;;;;;53.35;22.25;;;0.70;99.90;;;;;;7380248;32;20128;-58
2022/12/10 17:55:32;;;;;;;50.50;23.65;;;0.80;99.90;;;;;;7371452;32;20149;-58
2022/12/10 17:59:35;;;;;;;58.05;24.65;;;0.90;99.90;;;;;;7367616;32;20169;-59
2022/12/10 18:03:38;;;;;;;46.28;23.00;;;0.80;99.90;;;;;;7370853;32;20241;-59
2022/12/10 18:07:39;;;;;;;51.17;23.30;;;0.90;99.90;;;;;;7375085;32;20464;-59
2022/12/10 18:11:43;;;;;;;48.28;22.65;;;0.90;99.90;;;;;;7369071;32;20208;-59
2022/12/10 18:15:45;;;;;;;57.70;23.60;;;0.90;99.90;;;;;;7364320;32;20588;-58
2022/12/10 18:19:47;;;;;;;51.63;23.10;;;0.90;99.90;;;;;;7373802;32;20198;-59
2022/12/10 18:23:54;;;;;;;51.13;23.50;;;0.90;99.90;;;;;;7369314;32;20111;-58
2022/12/10 18:28:00;;;;;;;51.55;23.77;;;0.90;99.90;;;;;;7373256;32;20095;-59
2022/12/10 18:32:02;;;;;;;48.87;23.17;;;1.00;99.90;;;;;;7370944;32;20587;-59
2022/12/10 18:36:04;;;;;;;48.13;22.70;;;1.00;99.90;;;;;;7376189;32;20569;-60
2022/12/10 18:40:11;;;;;;;51.05;22.08;;;1.00;99.90;;;;;;7368848;32;20240;-59
2022/12/10 18:44:15;;;;;;;48.17;22.02;;;0.90;99.90;;;;;;7361264;32;20107;-59
2022/12/10 18:48:17;;;;;;;49.67;22.67;;;0.90;99.90;;;;;;7373628;32;20115;-59
2022/12/10 18:52:19;;;;;;;53.35;23.48;;;0.90;99.90;;;;;;7377501;32;20103;-58
2022/12/10 18:56:23;;;;;;;50.22;21.77;;;0.90;99.90;;;;;;7371646;32;20241;-59
2022/12/10 19:00:26;;;;;;;44.40;21.10;;;0.90;99.90;;;;;;7377062;32;20807;-59
2022/12/10 19:04:28;;;;;;;49.78;22.50;;;0.90;99.90;;;;;;7382076;32;20119;-58
2022/12/10 19:08:30;;;;;;;48.42;21.77;;;0.80;99.90;;;;;;7383150;32;20114;-58
2022/12/10 19:12:37;;;;;;;52.47;23.62;;;0.90;99.90;;;;;;7378556;32;20210;-59
2022/12/10 19:16:39;;;;;;;50.20;22.87;;;0.90;99.90;;;;;;7374091;32;20131;-59
2022/12/10 19:20:41;;;;;;;53.30;24.33;;;0.80;99.90;;;;;;7379017;32;20135;-60
2022/12/10 19:24:43;;;;;;;52.40;24.08;;;0.80;99.90;;;;;;7377724;32;20601;-58
2022/12/10 19:28:44;;;;;;;57.35;26.70;;;0.90;99.90;;;;;;7370551;32;20137;-60
2022/12/10 19:32:47;;;;;;;50.92;22.48;;;1.00;99.90;;;;;;7381475;32;20212;-59
2022/12/10 19:36:49;;;;;;;53.78;23.65;;;1.10;99.90;;;;;;7380094;32;20351;-60
2022/12/10 19:40:51;;;;;;;51.55;22.27;;;1.10;99.90;;;;;;7376446;32;20129;-59
2022/12/10 19:44:53;;;;;;;52.15;24.37;;;1.10;99.90;;;;;;7381429;32;20137;-59
2022/12/10 19:48:54;;;;;;;50.83;24.73;;;1.00;99.90;;;;;;7374304;32;20130;-59
2022/12/10 19:52:57;;;;;;;59.70;27.27;;;1.00;99.90;;;;;;7379396;32;20111;-59
2022/12/10 19:56:59;;;;;;;57.30;23.77;;;1.00;99.90;;;;;;7376910;32;20111;-59
2022/12/10 20:01:05;;;;;;;54.13;23.48;;;1.00;99.90;;;;;;7375726;32;20178;-58
2022/12/10 20:05:09;;;;;;;45.40;22.62;;;0.80;99.90;;;;;;7372191;32;20256;-59
2022/12/10 20:09:23;;;;;;;49.38;22.00;;;0.80;99.90;;;;;;7363505;32;20104;-58
2022/12/10 20:13:24;;;;;;;46.15;22.00;;;0.90;99.90;;;;;;7372510;32;20111;-59
2022/12/10 20:17:26;;;;;;;46.37;22.73;;;0.80;99.90;;;;;;7374692;32;20103;-59
2022/12/10 20:21:28;;;;;;;48.72;22.52;;;0.80;99.90;;;;;;7368730;32;20110;-60
2022/12/10 20:25:30;;;;;;;47.28;24.20;;;0.80;99.90;;;;;;7378678;32;20189;-59
2022/12/10 20:29:32;;;;;;;49.72;23.12;;;0.80;99.90;;;;;;7378603;32;20107;-60
2022/12/10 20:33:34;;;;;;;51.17;22.83;;;0.90;99.90;;;;;;7369117;32;20157;-60
2022/12/10 20:37:49;;;;;;;53.65;22.75;;;0.80;99.90;;;;;;7377575;32;20198;-60
2022/12/10 20:41:51;;;;;;;53.00;24.23;;;0.80;99.90;;;;;;7376424;32;20245;-60
2022/12/10 20:45:53;;;;;;;51.35;23.75;;;0.80;99.90;;;;;;7371831;32;20107;-61
2022/12/10 20:49:54;;;;;;;59.70;26.35;;;0.80;99.90;;;;;;7378216;32;20469;-60
2022/12/10 20:53:56;;;;;;;61.17;25.10;;;0.80;99.90;;;;;;7376841;32;20233;-60
2022/12/10 20:57:58;;;;;;;59.08;25.45;;;0.90;99.90;;;;;;7377800;32;20137;-58
2022/12/10 21:02:00;;;;;;;58.75;27.20;;;0.80;99.90;;;;;;7375893;32;20096;-59
2022/12/10 21:06:03;;;;;;;63.33;28.50;;;0.90;99.90;;;;;;7376852;32;20218;-58
2022/12/10 21:10:06;;;;;;;54.80;26.42;;;0.90;99.90;;;;;;7373132;32;20126;-59
2022/12/10 21:14:07;;;;;;;55.95;24.52;;;0.90;99.90;;;;;;7370122;32;20207;-60
2022/12/10 21:18:30;;;;;;;51.35;23.02;;;0.90;99.90;;;;;;7369220;32;20113;-61
2022/12/10 21:22:32;;;;;;;50.00;23.10;;;0.90;99.90;;;;;;7371439;32;20478;-58